Time;durP1;ratioP1;P1;durP2;ratioP2;P2;SDS_P1;SDS_P2;PMS_P1;PMS_P2;Temp;Humidity;BMP_temperature;BMP_pressure;BME280_temperature;BME280_humidity;BME280_pressure;Samples;Min_cycle;Max_cycle;Signal;HPM_P1;HPM_P2
2022/09/07 00:01:18;;;;;;;10.13;9.23;;;18.40;99.90;;;;;;4963755;28;20404;-76
2022/09/07 00:03:43;;;;;;;11.40;10.40;;;18.40;99.90;;;;;;4951213;28;20034;-76
2022/09/07 00:06:11;;;;;;;10.65;9.80;;;18.30;99.90;;;;;;4959726;28;20046;-76
2022/09/07 00:08:38;;;;;;;10.70;9.73;;;18.30;99.90;;;;;;4974786;28;20070;-76
2022/09/07 00:11:07;;;;;;;10.93;10.00;;;18.20;99.90;;;;;;4987970;28;20038;-77
2022/09/07 00:13:36;;;;;;;11.63;10.52;;;18.20;99.90;;;;;;4986579;28;20484;-76
2022/09/07 00:16:07;;;;;;;10.77;9.77;;;18.10;99.90;;;;;;4982419;28;20061;-77
2022/09/07 00:18:32;;;;;;;11.93;10.82;;;18.20;99.90;;;;;;4959024;28;20168;-76
2022/09/07 00:21:05;;;;;;;12.07;10.82;;;18.10;99.90;;;;;;4986535;28;20132;-76
2022/09/07 00:23:31;;;;;;;;;;;18.10;99.90;;;;;;4995357;28;20416;-76
2022/09/07 00:26:09;;;;;;;15.00;13.68;;;18.10;99.90;;;;;;4994923;28;19917;-76
2022/09/07 00:28:35;;;;;;;16.48;14.85;;;18.10;99.90;;;;;;4965708;28;20516;-76
2022/09/07 00:31:01;;;;;;;18.48;16.77;;;18.00;99.90;;;;;;4986756;28;20048;-76
2022/09/07 00:33:27;;;;;;;20.35;18.45;;;18.00;99.90;;;;;;4994619;28;20042;-76
2022/09/07 00:35:53;;;;;;;22.20;20.13;;;18.00;99.90;;;;;;4994547;28;20080;-76
2022/09/07 00:38:19;;;;;;;23.52;21.27;;;18.00;99.90;;;;;;4978069;28;20030;-76
2022/09/07 00:40:45;;;;;;;27.10;24.20;;;17.90;99.90;;;;;;4993090;28;20404;-76
2022/09/07 00:43:41;;;;;;;28.02;25.20;;;17.90;99.90;;;;;;4981873;28;20172;-76
2022/09/07 00:46:15;;;;;;;28.70;24.55;;;17.90;99.90;;;;;;4951555;28;20062;-76
2022/09/07 00:48:44;;;;;;;27.92;23.67;;;17.90;99.90;;;;;;4972509;28;20049;-76
2022/09/07 00:51:25;;;;;;;27.92;24.15;;;17.90;99.90;;;;;;4973793;28;20048;-76
2022/09/07 00:53:57;;;;;;;35.63;24.27;;;17.90;99.90;;;;;;4958573;28;20035;-76
2022/09/07 00:56:25;;;;;;;25.65;23.15;;;17.90;99.90;;;;;;4968157;28;20061;-75
2022/09/07 00:58:51;;;;;;;26.58;23.98;;;17.90;99.90;;;;;;4998334;28;20632;-76
2022/09/07 01:01:17;;;;;;;27.05;24.25;;;17.80;99.90;;;;;;4998276;28;20093;-76
2022/09/07 01:03:47;;;;;;;27.77;24.45;;;17.80;99.90;;;;;;4998221;28;20539;-76
2022/09/07 01:06:17;;;;;;;38.08;23.52;;;17.80;99.90;;;;;;4986019;28;20045;-76
2022/09/07 01:08:46;;;;;;;26.48;23.67;;;17.80;99.90;;;;;;4986730;28;20492;-75
2022/09/07 01:11:12;;;;;;;26.98;23.00;;;17.80;99.90;;;;;;4981945;28;20042;-75
2022/09/07 01:13:39;;;;;;;19.77;17.75;;;17.70;99.90;;;;;;4981748;28;20038;-76
2022/09/07 01:16:17;;;;;;;16.17;14.45;;;17.70;99.90;;;;;;4993235;28;20275;-76
2022/09/07 01:19:23;;;;;;;15.88;12.02;;;17.60;99.90;;;;;;4975734;28;20034;-75
2022/09/07 01:21:58;;;;;;;9.68;8.77;;;17.50;99.90;;;;;;4972817;28;20050;-76
2022/09/07 01:24:45;;;;;;;7.88;7.07;;;17.50;99.90;;;;;;4992733;28;20093;-75
2022/09/07 01:27:48;;;;;;;5.32;4.57;;;17.40;99.90;;;;;;4959145;28;20480;-76
2022/09/07 01:30:21;;;;;;;7.10;6.32;;;17.20;99.90;;;;;;4958965;28;20039;-77
2022/09/07 01:33:21;;;;;;;8.02;7.22;;;17.10;99.90;;;;;;4972738;28;20047;-77
2022/09/07 01:36:04;;;;;;;8.43;7.63;;;16.90;99.90;;;;;;4962821;28;20100;-76
2022/09/07 01:38:37;;;;;;;13.30;12.15;;;16.80;99.90;;;;;;4961944;28;20492;-76
2022/09/07 01:41:05;;;;;;;16.17;14.50;;;16.90;99.90;;;;;;4976289;28;20503;-76
2022/09/07 01:43:59;;;;;;;18.92;17.17;;;16.90;99.90;;;;;;4967781;28;20066;-76
2022/09/07 01:46:32;;;;;;;19.55;17.63;;;16.90;99.90;;;;;;4957494;28;20045;-76
2022/09/07 01:49:18;;;;;;;22.42;20.30;;;16.90;99.90;;;;;;5016691;23;20037;-82
2022/09/07 01:51:47;;;;;;;21.58;19.55;;;17.00;99.90;;;;;;4984546;28;20442;-81
2022/09/07 01:54:37;;;;;;;18.60;16.90;;;17.00;99.90;;;;;;4967242;28;20043;-81
2022/09/07 01:57:17;;;;;;;17.55;15.95;;;17.00;99.90;;;;;;4956679;28;20053;-80
2022/09/07 01:59:50;;;;;;;16.92;15.30;;;16.90;99.90;;;;;;4962414;28;20038;-80
2022/09/07 02:02:20;;;;;;;14.95;13.65;;;16.90;99.90;;;;;;4962904;28;20440;-80
2022/09/07 02:04:59;;;;;;;17.42;15.85;;;16.90;99.90;;;;;;4961288;28;20038;-81
2022/09/07 02:07:46;;;;;;;15.80;14.40;;;16.80;99.90;;;;;;4972110;28;20052;-80
2022/09/07 02:10:21;;;;;;;14.95;13.65;;;16.80;99.90;;;;;;4967694;28;20049;-80
2022/09/07 02:12:56;;;;;;;14.70;13.40;;;16.80;99.90;;;;;;4963313;28;20035;-81
2022/09/07 02:15:40;;;;;;;12.88;11.57;;;16.80;99.90;;;;;;4978732;28;20408;-81
2022/09/07 02:18:08;;;;;;;12.10;11.00;;;16.80;99.90;;;;;;4976958;28;20035;-81
2022/09/07 02:20:37;;;;;;;11.55;10.45;;;16.70;99.90;;;;;;4945213;28;20043;-80
2022/09/07 02:23:12;;;;;;;10.90;10.00;;;16.70;99.90;;;;;;4957367;28;20043;-81
2022/09/07 02:25:44;;;;;;;9.93;9.02;;;16.60;99.90;;;;;;4976766;28;20041;-81
2022/09/07 02:28:19;;;;;;;8.77;7.97;;;16.70;99.90;;;;;;4973436;28;20104;-81
2022/09/07 02:30:44;;;;;;;8.07;7.32;;;16.60;99.90;;;;;;4982967;28;20046;-81
2022/09/07 02:33:10;;;;;;;7.65;6.95;;;16.60;99.90;;;;;;4981754;28;20041;-81
2022/09/07 02:35:36;;;;;;;7.22;6.63;;;16.70;99.90;;;;;;4993019;28;20182;-81
2022/09/07 02:38:05;;;;;;;6.88;6.25;;;16.60;99.90;;;;;;4954724;28;20034;-81
2022/09/07 02:40:31;;;;;;;6.30;5.72;;;16.60;99.90;;;;;;4961477;28;20046;-81
2022/09/07 02:43:02;;;;;;;6.00;5.32;;;16.50;99.90;;;;;;4969488;28;20117;-81
2022/09/07 02:45:55;;;;;;;5.35;4.60;;;16.50;99.90;;;;;;4970508;28;20046;-81
2022/09/07 02:48:23;;;;;;;4.90;4.50;;;16.50;99.90;;;;;;4926073;28;20055;-81
2022/09/07 02:51:01;;;;;;;4.97;4.50;;;16.50;99.90;;;;;;4956209;28;20054;-80
2022/09/07 02:54:00;;;;;;;4.82;4.43;;;16.40;99.90;;;;;;4964429;28;20046;-81
2022/09/07 02:56:38;;;;;;;4.88;4.47;;;16.40;99.90;;;;;;4969752;28;20053;-81
2022/09/07 02:59:17;;;;;;;5.20;4.43;;;16.30;99.90;;;;;;4968109;28;20049;-81
2022/09/07 03:02:03;;;;;;;4.80;4.30;;;16.40;99.90;;;;;;4954200;28;20042;-81
2022/09/07 03:04:45;;;;;;;4.53;4.13;;;16.40;99.90;;;;;;4963685;28;20539;-81
2022/09/07 03:07:18;;;;;;;5.70;5.20;;;16.40;99.90;;;;;;4962347;28;20401;-81
2022/09/07 03:09:46;;;;;;;;;;;16.40;99.90;;;;;;4962102;28;20501;-81
2022/09/07 03:12:11;;;;;;;5.40;4.90;;;16.40;99.90;;;;;;4986203;28;19918;-80
2022/09/07 03:14:40;;;;;;;5.35;4.82;;;16.30;99.90;;;;;;4959243;28;20093;-82
2022/09/07 03:17:06;;;;;;;5.65;5.15;;;16.30;99.90;;;;;;4955616;28;20044;-80
2022/09/07 03:19:32;;;;;;;5.90;5.32;;;16.30;99.90;;;;;;4961961;28;20125;-79
2022/09/07 03:21:57;;;;;;;6.57;5.28;;;16.30;99.90;;;;;;4989114;28;20077;-81
2022/09/07 03:24:23;;;;;;;6.43;5.38;;;16.40;99.90;;;;;;4977448;28;20495;-81
2022/09/07 03:26:50;;;;;;;5.82;5.32;;;16.30;99.90;;;;;;4968914;28;20047;-80
2022/09/07 03:29:17;;;;;;;6.07;5.47;;;16.30;99.90;;;;;;4960598;28;20068;-81
2022/09/07 03:31:42;;;;;;;6.00;5.47;;;16.30;99.90;;;;;;4970152;28;20034;-80
2022/09/07 03:34:08;;;;;;;6.30;5.80;;;16.20;99.90;;;;;;4979521;28;20083;-80
2022/09/07 03:36:34;;;;;;;5.95;5.45;;;16.40;99.90;;;;;;4979512;28;20131;-80
2022/09/07 03:39:01;;;;;;;6.63;5.80;;;16.20;99.90;;;;;;4969915;28;20038;-81
2022/09/07 03:41:27;;;;;;;6.80;6.10;;;16.20;99.90;;;;;;4966395;28;20508;-81
2022/09/07 03:43:53;;;;;;;7.63;6.82;;;16.30;99.90;;;;;;4967732;28;20082;-80
2022/09/07 03:46:19;;;;;;;7.63;6.93;;;16.30;99.90;;;;;;4960085;28;20492;-80
2022/09/07 03:48:47;;;;;;;7.45;6.75;;;16.30;99.90;;;;;;4959529;28;20038;-81
2022/09/07 03:51:14;;;;;;;8.25;7.55;;;16.30;99.90;;;;;;4960359;28;20046;-80
2022/09/07 03:53:43;;;;;;;8.50;7.68;;;16.30;99.90;;;;;;4959974;28;20074;-80
2022/09/07 03:56:12;;;;;;;7.90;7.20;;;16.30;99.90;;;;;;4950064;28;20038;-80
2022/09/07 03:58:38;;;;;;;8.35;7.57;;;16.20;99.90;;;;;;4957516;28;20157;-80
2022/09/07 04:01:10;;;;;;;9.73;8.13;;;16.20;99.90;;;;;;4959829;28;20146;-80
2022/09/07 04:03:36;;;;;;;9.48;8.57;;;16.20;99.90;;;;;;4959666;28;20045;-80
2022/09/07 04:06:02;;;;;;;13.05;11.85;;;16.20;99.90;;;;;;4975466;28;20050;-80
2022/09/07 04:08:29;;;;;;;16.80;15.10;;;16.20;99.90;;;;;;4982405;28;20038;-80
2022/09/07 04:10:56;;;;;;;17.65;15.93;;;16.20;99.90;;;;;;4963520;28;20060;-80
2022/09/07 04:13:22;;;;;;;20.30;18.20;;;16.20;99.90;;;;;;4995067;28;20038;-80
2022/09/07 04:15:48;;;;;;;20.95;18.77;;;16.30;99.90;;;;;;4978744;28;20516;-80
2022/09/07 04:18:14;;;;;;;24.40;22.05;;;16.30;99.90;;;;;;4981803;28;20034;-80
2022/09/07 04:20:39;;;;;;;26.17;23.70;;;16.30;99.90;;;;;;4957603;28;20030;-80
2022/09/07 04:23:05;;;;;;;25.70;23.15;;;16.30;99.90;;;;;;4953518;28;20116;-80
2022/09/07 04:25:30;;;;;;;28.25;25.38;;;16.40;99.90;;;;;;4959700;28;20132;-80
2022/09/07 04:27:57;;;;;;;26.48;23.88;;;16.40;99.90;;;;;;4966061;28;20042;-80
2022/09/07 04:30:22;;;;;;;28.27;25.45;;;16.40;99.90;;;;;;4970386;28;20074;-80
2022/09/07 04:32:48;;;;;;;26.77;24.27;;;16.40;99.90;;;;;;4972077;28;20512;-80
2022/09/07 04:35:14;;;;;;;26.45;23.73;;;16.40;99.90;;;;;;4953377;28;20046;-80
2022/09/07 04:37:39;;;;;;;25.83;23.20;;;16.30;99.90;;;;;;4977902;28;20126;-80
2022/09/07 04:40:05;;;;;;;24.85;22.45;;;16.30;99.90;;;;;;4972859;28;20120;-80
2022/09/07 04:42:31;;;;;;;28.13;25.33;;;16.30;99.90;;;;;;4996478;28;20100;-80
2022/09/07 04:44:56;;;;;;;28.33;24.95;;;16.30;99.90;;;;;;4967500;28;20542;-80
2022/09/07 04:47:22;;;;;;;25.85;23.15;;;16.30;99.90;;;;;;4970842;28;20039;-80
2022/09/07 04:49:51;;;;;;;28.77;25.88;;;16.30;99.90;;;;;;4969940;28;20057;-80
2022/09/07 04:52:17;;;;;;;28.98;26.00;;;16.40;99.90;;;;;;4995503;28;20041;-80
2022/09/07 04:54:46;;;;;;;29.73;26.73;;;16.40;99.90;;;;;;4974903;28;20034;-80
2022/09/07 04:57:12;;;;;;;28.73;25.60;;;16.30;99.90;;;;;;4983860;28;20066;-80
2022/09/07 04:59:38;;;;;;;31.25;28.25;;;16.40;99.90;;;;;;4983519;28;20034;-81
2022/09/07 05:02:03;;;;;;;29.98;27.00;;;16.50;99.90;;;;;;4953198;28;20404;-80
2022/09/07 05:04:29;;;;;;;31.92;28.63;;;16.50;99.90;;;;;;4943603;28;20363;-80
2022/09/07 05:06:54;;;;;;;32.67;29.45;;;16.50;99.90;;;;;;4975883;28;20176;-79
2022/09/07 05:09:20;;;;;;;32.75;29.40;;;16.50;99.90;;;;;;4965719;28;20053;-80
2022/09/07 05:11:46;;;;;;;32.90;29.60;;;16.60;99.90;;;;;;4968174;28;20128;-80
2022/09/07 05:14:11;;;;;;;32.40;29.15;;;16.50;99.90;;;;;;4966574;28;20041;-80
2022/09/07 05:16:37;;;;;;;33.00;29.60;;;16.60;99.90;;;;;;4959439;28;20047;-80
2022/09/07 05:19:04;;;;;;;34.08;30.67;;;16.50;99.90;;;;;;4978361;28;20515;-80
2022/09/07 05:21:33;;;;;;;36.50;32.75;;;16.70;99.90;;;;;;4969734;28;20505;-80
2022/09/07 05:24:00;;;;;;;34.60;31.08;;;16.70;99.90;;;;;;4966698;28;20444;-80
2022/09/07 05:26:28;;;;;;;36.15;32.53;;;16.70;99.90;;;;;;4975280;28;20511;-80
2022/09/07 05:28:54;;;;;;;34.25;30.58;;;16.80;99.90;;;;;;4963939;28;20034;-80
2022/09/07 05:31:21;;;;;;;34.95;31.33;;;16.70;99.90;;;;;;4959819;28;20043;-80
2022/09/07 05:33:49;;;;;;;35.05;31.48;;;16.70;99.90;;;;;;4978302;28;20037;-80
2022/09/07 05:36:15;;;;;;;35.90;32.28;;;16.80;99.90;;;;;;4967672;28;20051;-80
2022/09/07 05:38:41;;;;;;;36.10;32.30;;;16.80;99.90;;;;;;4967274;28;20170;-80
2022/09/07 05:41:11;;;;;;;35.70;32.08;;;16.80;99.90;;;;;;4956679;28;20038;-80
2022/09/07 05:43:37;;;;;;;37.40;33.50;;;16.80;99.90;;;;;;4976874;28;20038;-80
2022/09/07 05:46:02;;;;;;;36.22;32.58;;;16.80;99.90;;;;;;4963098;28;20042;-80
2022/09/07 05:48:28;;;;;;;37.38;33.47;;;16.90;99.90;;;;;;4963293;28;20484;-80
2022/09/07 05:50:54;;;;;;;37.65;33.63;;;16.90;99.90;;;;;;4962407;28;20458;-80
2022/09/07 05:53:20;;;;;;;42.95;35.17;;;16.90;99.90;;;;;;4963331;28;20128;-80
2022/09/07 05:55:46;;;;;;;40.38;34.63;;;16.90;99.90;;;;;;4979084;28;20049;-80
2022/09/07 05:58:12;;;;;;;39.55;35.45;;;16.90;99.90;;;;;;4962947;28;20034;-80
2022/09/07 06:00:38;;;;;;;39.08;34.85;;;16.90;99.90;;;;;;4963192;28;20061;-80
2022/09/07 06:03:04;;;;;;;36.78;32.97;;;17.00;99.90;;;;;;4972181;28;20075;-80
2022/09/07 06:05:29;;;;;;;37.35;33.35;;;17.00;99.90;;;;;;4959461;28;20040;-80
2022/09/07 06:07:55;;;;;;;38.33;32.08;;;17.00;99.90;;;;;;4962157;28;20050;-80
2022/09/07 06:10:21;;;;;;;38.03;33.80;;;17.00;99.90;;;;;;4961788;28;20480;-80
2022/09/07 06:12:46;;;;;;;34.70;31.10;;;17.00;99.90;;;;;;4979059;28;20092;-80
2022/09/07 06:15:12;;;;;;;36.15;31.38;;;17.00;99.90;;;;;;4963068;28;20038;-80
2022/09/07 06:17:38;;;;;;;35.85;30.55;;;17.10;99.90;;;;;;4978991;28;20034;-80
2022/09/07 06:20:05;;;;;;;32.58;29.08;;;17.10;99.90;;;;;;4990644;28;20026;-80
2022/09/07 06:22:35;;;;;;;34.75;29.95;;;17.10;99.90;;;;;;4982368;28;20096;-80
2022/09/07 06:25:01;;;;;;;32.83;27.77;;;17.10;99.90;;;;;;4967935;28;20122;-80
2022/09/07 06:27:26;;;;;;;29.55;26.13;;;17.10;99.90;;;;;;4959067;28;20073;-80
2022/09/07 06:29:52;;;;;;;28.20;25.20;;;17.10;99.90;;;;;;4962494;28;20044;-80
2022/09/07 06:32:18;;;;;;;28.42;23.95;;;17.10;99.90;;;;;;4976370;28;20041;-80
2022/09/07 06:34:43;;;;;;;27.23;23.10;;;17.10;99.90;;;;;;4972220;28;20209;-80
2022/09/07 06:37:09;;;;;;;28.15;23.67;;;17.10;99.90;;;;;;4967484;28;20093;-80
2022/09/07 06:39:35;;;;;;;26.90;23.42;;;17.20;99.90;;;;;;4947883;28;20386;-81
2022/09/07 06:42:02;;;;;;;23.95;20.60;;;17.10;99.90;;;;;;4977459;28;20541;-81
2022/09/07 06:44:28;;;;;;;21.63;19.17;;;17.20;99.90;;;;;;4968381;28;20038;-81
2022/09/07 06:46:54;;;;;;;20.48;18.27;;;17.10;99.90;;;;;;4942311;28;20042;-82
2022/09/07 06:49:19;;;;;;;18.42;16.50;;;17.10;99.90;;;;;;4942194;28;20049;-82
2022/09/07 06:51:45;;;;;;;19.00;16.58;;;17.10;99.90;;;;;;4943860;28;20405;-81
2022/09/07 06:54:11;;;;;;;17.92;15.27;;;17.10;99.90;;;;;;4971004;28;20050;-82
2022/09/07 06:56:36;;;;;;;20.02;16.80;;;17.10;99.90;;;;;;4986699;28;20540;-81
2022/09/07 06:59:02;;;;;;;17.95;16.00;;;17.10;99.90;;;;;;4976360;28;20031;-82
2022/09/07 07:01:28;;;;;;;19.08;17.08;;;17.10;99.90;;;;;;4982343;28;20096;-81
2022/09/07 07:03:54;;;;;;;18.63;16.42;;;17.10;99.90;;;;;;4968802;28;20440;-82
2022/09/07 07:06:20;;;;;;;18.33;16.38;;;17.10;99.90;;;;;;4961002;28;20045;-81
2022/09/07 07:08:46;;;;;;;19.13;17.05;;;17.10;99.90;;;;;;4953486;28;20027;-80
2022/09/07 07:11:14;;;;;;;19.17;16.13;;;17.20;99.90;;;;;;4981954;28;20069;-79
2022/09/07 07:13:41;;;;;;;18.63;16.40;;;17.20;99.90;;;;;;4980747;28;20122;-78
2022/09/07 07:16:12;;;;;;;21.02;16.92;;;17.20;99.90;;;;;;4973297;28;20231;-79
2022/09/07 07:18:39;;;;;;;19.60;16.85;;;17.30;99.90;;;;;;4983829;28;20496;-78
2022/09/07 07:21:10;;;;;;;18.40;15.95;;;17.30;99.90;;;;;;4945666;28;20120;-80
2022/09/07 07:23:36;;;;;;;17.40;14.48;;;17.30;99.90;;;;;;4990821;28;20066;-78
2022/09/07 07:26:03;;;;;;;16.58;14.82;;;17.40;99.90;;;;;;4989479;28;20078;-78
2022/09/07 07:28:29;;;;;;;15.80;14.02;;;17.40;99.90;;;;;;4956623;28;20493;-78
2022/09/07 07:31:00;;;;;;;15.88;14.18;;;17.40;99.90;;;;;;4940886;28;20178;-80
2022/09/07 07:33:34;;;;;;;15.45;13.85;;;17.50;99.90;;;;;;4955935;28;20364;-80
2022/09/07 07:36:11;;;;;;;16.30;13.60;;;17.50;99.90;;;;;;4967399;28;20035;-80
2022/09/07 07:38:37;;;;;;;17.48;14.75;;;17.60;99.90;;;;;;4949683;28;20142;-81
2022/09/07 07:41:04;;;;;;;16.65;14.73;;;17.70;99.90;;;;;;4958187;28;20047;-81
2022/09/07 07:43:30;;;;;;;16.05;14.05;;;17.80;99.90;;;;;;4942725;28;20050;-81
2022/09/07 07:45:58;;;;;;;15.15;13.52;;;17.70;99.90;;;;;;4974542;28;20449;-81
2022/09/07 07:48:24;;;;;;;16.60;14.13;;;17.90;99.90;;;;;;4978705;23;20043;-78
2022/09/07 07:50:58;;;;;;;17.60;15.02;;;18.00;99.90;;;;;;4936663;29;20050;-78
2022/09/07 07:53:24;;;;;;;15.95;14.10;;;18.10;99.90;;;;;;4937482;29;20151;-78
2022/09/07 07:55:50;;;;;;;16.20;14.48;;;18.20;99.90;;;;;;4936874;28;20063;-78
2022/09/07 07:58:15;;;;;;;20.20;17.35;;;18.30;99.90;;;;;;4957440;28;20128;-79
2022/09/07 08:00:41;;;;;;;18.05;15.75;;;18.50;99.90;;;;;;4940411;28;20053;-76
2022/09/07 08:03:07;;;;;;;18.02;16.13;;;18.70;99.90;;;;;;4940873;28;20030;-77
2022/09/07 08:05:36;;;;;;;18.45;14.63;;;18.80;99.90;;;;;;4933164;28;20050;-76
2022/09/07 08:08:02;;;;;;;15.85;14.27;;;18.80;99.90;;;;;;4945631;28;20066;-76
2022/09/07 08:10:29;;;;;;;16.02;14.40;;;18.90;99.90;;;;;;4935341;29;20129;-76
2022/09/07 08:12:55;;;;;;;15.13;13.60;;;19.00;99.90;;;;;;4932784;29;20047;-77
2022/09/07 08:15:21;;;;;;;15.27;13.68;;;19.00;99.90;;;;;;4929435;28;20062;-77
2022/09/07 08:17:47;;;;;;;17.92;15.18;;;19.10;99.90;;;;;;4943182;28;20489;-77
2022/09/07 08:20:13;;;;;;;16.23;14.52;;;19.30;99.90;;;;;;4943171;28;20085;-77
2022/09/07 08:22:39;;;;;;;14.60;12.90;;;19.40;99.90;;;;;;4941535;29;20043;-77
2022/09/07 08:25:06;;;;;;;13.75;12.30;;;19.50;99.90;;;;;;4919561;29;20062;-77
2022/09/07 08:27:32;;;;;;;12.57;11.38;;;19.50;99.90;;;;;;4919754;29;20066;-76
2022/09/07 08:29:59;;;;;;;12.82;11.60;;;19.50;99.90;;;;;;4919806;29;20063;-76
2022/09/07 08:32:25;;;;;;;12.30;10.93;;;19.60;99.90;;;;;;4919818;29;20035;-77
2022/09/07 08:34:51;;;;;;;14.02;12.73;;;19.70;99.90;;;;;;4935731;29;20062;-77
2022/09/07 08:37:17;;;;;;;13.30;11.65;;;19.90;99.90;;;;;;4919094;29;20490;-77
2022/09/07 08:39:43;;;;;;;12.50;11.20;;;20.00;99.90;;;;;;4935431;29;20039;-76
2022/09/07 08:42:31;;;;;;;11.90;10.75;;;20.20;99.90;;;;;;4919910;29;20500;-76
2022/09/07 08:45:08;;;;;;;10.77;9.68;;;20.40;99.90;;;;;;4919860;29;20050;-77
2022/09/07 08:47:49;;;;;;;12.02;10.82;;;20.50;99.90;;;;;;4935300;29;20066;-77
2022/09/07 08:50:32;;;;;;;11.25;10.15;;;20.50;99.90;;;;;;4935625;29;20122;-77
2022/09/07 08:53:12;;;;;;;;;;;20.50;99.90;;;;;;4932308;29;20519;-76
2022/09/07 08:55:57;;;;;;;11.32;9.70;;;20.40;99.90;;;;;;4916964;29;19930;-77
2022/09/07 08:58:42;;;;;;;10.63;9.52;;;20.30;99.90;;;;;;4949479;29;20561;-77
2022/09/07 09:01:16;;;;;;;10.23;9.23;;;20.40;99.90;;;;;;4947683;29;20074;-76
2022/09/07 09:03:42;;;;;;;9.63;8.73;;;20.50;99.90;;;;;;4949793;29;20040;-76
2022/09/07 09:06:34;;;;;;;10.00;9.00;;;20.60;99.90;;;;;;4935419;29;20043;-75
2022/09/07 09:09:33;;;;;;;9.32;8.32;;;20.60;99.90;;;;;;4945438;28;20549;-75
2022/09/07 09:12:17;;;;;;;9.00;8.20;;;20.50;99.90;;;;;;4933859;29;20155;-76
2022/09/07 09:15:00;;;;;;;9.13;8.23;;;20.40;99.90;;;;;;4934419;28;20054;-75
2022/09/07 09:17:46;;;;;;;9.20;8.30;;;20.40;99.90;;;;;;4954450;28;20112;-75
2022/09/07 09:20:40;;;;;;;9.02;8.23;;;20.60;99.90;;;;;;4956170;28;20524;-75
2022/09/07 09:23:11;;;;;;;;;;;20.70;99.90;;;;;;4943479;28;20593;-75
2022/09/07 09:25:40;;;;;;;8.45;7.65;;;20.80;99.90;;;;;;4935664;28;19917;-77
2022/09/07 09:28:10;;;;;;;9.85;7.97;;;21.00;99.90;;;;;;4958088;28;20362;-75
2022/09/07 09:30:36;;;;;;;8.32;7.43;;;21.40;99.90;;;;;;4923226;29;20043;-76
2022/09/07 09:33:20;;;;;;;7.20;6.50;;;21.60;99.90;;;;;;4937925;29;20605;-75
2022/09/07 09:35:49;;;;;;;6.75;5.97;;;21.70;99.90;;;;;;4952142;28;20047;-75
2022/09/07 09:38:33;;;;;;;7.28;6.25;;;21.80;99.90;;;;;;4943708;28;20036;-75
2022/09/07 09:41:11;;;;;;;6.43;5.82;;;21.70;99.90;;;;;;4953566;28;20038;-74
2022/09/07 09:43:51;;;;;;;6.10;5.50;;;21.60;99.90;;;;;;4964878;28;20119;-74
2022/09/07 09:46:26;;;;;;;6.85;5.93;;;21.50;99.90;;;;;;4943669;29;20150;-75
2022/09/07 09:48:55;;;;;;;6.68;5.78;;;21.50;99.90;;;;;;4949636;28;20042;-75
2022/09/07 09:51:23;;;;;;;6.45;5.72;;;21.40;99.90;;;;;;4958696;28;20544;-74
2022/09/07 09:53:54;;;;;;;6.38;5.78;;;21.30;99.90;;;;;;4942243;29;20048;-75
2022/09/07 09:56:21;;;;;;;7.28;6.57;;;21.30;99.90;;;;;;4949931;28;20770;-75
2022/09/07 09:58:47;;;;;;;6.43;5.82;;;21.40;99.90;;;;;;4940865;28;20043;-74
2022/09/07 10:01:20;;;;;;;6.80;6.10;;;21.50;99.90;;;;;;4946193;28;20053;-74
2022/09/07 10:03:46;;;;;;;6.38;5.78;;;21.50;99.90;;;;;;4938349;29;20041;-80
2022/09/07 10:06:16;;;;;;;6.22;5.63;;;21.50;99.90;;;;;;4942079;28;20042;-77
2022/09/07 10:08:59;;;;;;;7.85;5.60;;;21.50;99.90;;;;;;4936412;28;20109;-77
2022/09/07 10:11:46;;;;;;;5.70;5.18;;;21.40;99.90;;;;;;4919838;29;20058;-77
2022/09/07 10:14:31;;;;;;;6.13;5.53;;;21.30;99.90;;;;;;4929812;29;20050;-77
2022/09/07 10:17:08;;;;;;;5.82;5.22;;;21.30;99.90;;;;;;4948664;28;20039;-79
2022/09/07 10:19:39;;;;;;;5.10;4.60;;;21.30;99.90;;;;;;4940590;29;20047;-76
2022/09/07 10:22:23;;;;;;;5.43;4.72;;;21.20;99.90;;;;;;4960195;28;20063;-76
2022/09/07 10:24:50;;;;;;;5.57;5.07;;;21.30;99.90;;;;;;4953649;28;20054;-74
2022/09/07 10:27:34;;;;;;;5.25;4.75;;;21.50;99.90;;;;;;4943138;29;20037;-75
2022/09/07 10:30:01;;;;;;;5.35;4.85;;;21.50;99.90;;;;;;4945220;29;20067;-75
2022/09/07 10:33:07;;;;;;;4.93;4.50;;;21.60;99.90;;;;;;4952948;28;20093;-76
2022/09/07 10:35:40;;;;;;;4.70;4.30;;;21.70;99.90;;;;;;4937922;29;20592;-75
2022/09/07 10:38:05;;;;;;;;;;;21.70;99.90;;;;;;4951930;28;20122;-75
2022/09/07 10:40:41;;;;;;;5.05;4.28;;;21.90;99.90;;;;;;4939487;28;19949;-78
2022/09/07 10:43:17;;;;;;;5.07;4.57;;;22.20;99.90;;;;;;4959691;28;20397;-75
2022/09/07 10:46:14;;;;;;;4.18;3.80;;;22.30;99.90;;;;;;4936756;29;20039;-75
2022/09/07 10:49:31;;;;;;;4.20;3.67;;;22.40;99.90;;;;;;4960779;28;20046;-75
2022/09/07 10:52:07;;;;;;;4.28;3.45;;;22.30;99.90;;;;;;4888776;29;20573;-75
2022/09/07 10:54:42;;;;;;;3.97;3.67;;;22.20;99.90;;;;;;4920890;29;20114;-75
2022/09/07 10:57:39;;;;;;;4.13;3.63;;;22.30;99.90;;;;;;4927233;28;20027;-75
2022/09/07 11:00:16;;;;;;;4.60;4.13;;;22.40;99.90;;;;;;4938012;28;20062;-75
2022/09/07 11:03:15;;;;;;;4.13;3.83;;;22.50;99.90;;;;;;4944243;28;20047;-75
2022/09/07 11:06:14;;;;;;;3.22;2.92;;;22.70;99.90;;;;;;4962050;28;20461;-75
2022/09/07 11:09:08;;;;;;;4.78;3.47;;;22.90;99.90;;;;;;4930210;28;20039;-75
2022/09/07 11:11:55;;;;;;;3.97;3.35;;;23.60;99.90;;;;;;4937480;28;20179;-76
2022/09/07 11:14:23;;;;;;;3.63;3.33;;;24.30;99.90;;;;;;4949242;28;20058;-74
2022/09/07 11:17:00;;;;;;;3.40;3.10;;;24.90;99.90;;;;;;4946489;28;20035;-75
2022/09/07 11:19:40;;;;;;;4.43;3.00;;;25.40;99.90;;;;;;4944588;28;20110;-76
2022/09/07 11:22:29;;;;;;;3.00;2.70;;;25.70;99.90;;;;;;4932292;29;20073;-76
2022/09/07 11:25:13;;;;;;;3.58;3.28;;;25.60;99.90;;;;;;4935475;28;20043;-76
2022/09/07 11:27:48;;;;;;;3.75;2.67;;;25.20;99.90;;;;;;4949574;28;20071;-75
2022/09/07 11:30:18;;;;;;;2.83;2.60;;;24.90;99.90;;;;;;4963970;28;20042;-75
2022/09/07 11:33:03;;;;;;;2.70;2.22;;;24.70;99.90;;;;;;4952325;29;20063;-75
2022/09/07 11:35:46;;;;;;;2.42;2.22;;;24.70;99.90;;;;;;4949893;28;20070;-75
2022/09/07 11:38:20;;;;;;;2.55;2.10;;;25.00;99.90;;;;;;4943022;28;20520;-76
2022/09/07 11:40:51;;;;;;;2.67;2.33;;;25.30;99.90;;;;;;4934157;28;20489;-74
2022/09/07 11:43:35;;;;;;;2.45;2.22;;;25.60;99.90;;;;;;4932900;29;20498;-75
2022/09/07 11:46:06;;;;;;;2.20;2.00;;;25.70;99.90;;;;;;4955602;28;20484;-74
2022/09/07 11:48:42;;;;;;;3.30;2.53;;;25.40;99.90;;;;;;4947288;28;20081;-75
2022/09/07 11:51:46;;;;;;;3.47;2.67;;;25.50;99.90;;;;;;4947995;28;20038;-74
2022/09/07 11:54:34;;;;;;;2.13;1.92;;;26.00;99.90;;;;;;4939136;28;20050;-74
2022/09/07 11:57:06;;;;;;;3.28;2.47;;;26.60;99.90;;;;;;4949033;28;20037;-75
2022/09/07 11:59:51;;;;;;;2.42;2.22;;;26.90;99.90;;;;;;4953265;28;20049;-74
2022/09/07 12:02:39;;;;;;;2.58;1.95;;;26.70;99.90;;;;;;4949687;28;20046;-74
2022/09/07 12:05:04;;;;;;;2.53;2.30;;;26.20;99.90;;;;;;4921225;29;20404;-74
2022/09/07 12:07:47;;;;;;;3.63;2.38;;;25.80;99.90;;;;;;4959696;28;20137;-74
2022/09/07 12:10:45;;;;;;;2.53;1.80;;;25.60;99.90;;;;;;4951559;28;20576;-75
2022/09/07 12:13:19;;;;;;;2.70;2.10;;;25.50;99.90;;;;;;4937023;28;20393;-74
2022/09/07 12:16:07;;;;;;;2.88;2.20;;;25.50;99.90;;;;;;4951409;28;20493;-74
2022/09/07 12:18:51;;;;;;;2.42;2.10;;;25.80;99.90;;;;;;4971822;28;20050;-74
2022/09/07 12:21:29;;;;;;;2.25;1.75;;;26.60;99.90;;;;;;4951926;28;20539;-74
2022/09/07 12:23:55;;;;;;;2.10;1.77;;;27.40;99.90;;;;;;4950784;29;20078;-74
2022/09/07 12:26:35;;;;;;;1.83;1.60;;;27.80;99.90;;;;;;4949385;28;20434;-76
2022/09/07 12:29:01;;;;;;;1.63;1.52;;;28.20;99.90;;;;;;4940601;28;20030;-76
2022/09/07 12:31:50;;;;;;;1.60;1.45;;;28.70;99.90;;;;;;4940754;29;20387;-75
2022/09/07 12:34:31;;;;;;;2.13;1.95;;;29.20;99.90;;;;;;4931768;29;20552;-76
2022/09/07 12:37:09;;;;;;;1.52;1.42;;;29.50;97.60;;;;;;4936468;29;20122;-75
2022/09/07 12:39:38;;;;;;;2.33;1.40;;;29.60;99.00;;;;;;4934984;29;20039;-76
2022/09/07 12:42:04;;;;;;;2.22;1.48;;;29.60;93.10;;;;;;4930175;29;20122;-76
2022/09/07 12:44:30;;;;;;;2.67;1.30;;;29.30;91.00;;;;;;4928088;29;20131;-76
2022/09/07 12:47:01;;;;;;;1.83;1.67;;;28.60;94.40;;;;;;4952200;29;20051;-76
2022/09/07 12:50:04;;;;;;;2.72;2.00;;;28.20;95.40;;;;;;4951511;28;20043;-77
2022/09/07 12:52:39;;;;;;;;;;;27.80;90.50;;;;;;4936314;29;20454;-75
2022/09/07 12:55:18;;;;;;;1.92;1.48;;;27.20;83.10;;;;;;4936638;29;20297;-76
2022/09/07 12:57:53;;;;;;;4.72;1.50;;;26.70;86.90;;;;;;4936228;29;20043;-75
2022/09/07 13:00:50;;;;;;;8.18;2.17;;;26.40;93.20;;;;;;4921752;29;20043;-76
2022/09/07 13:03:37;;;;;;;4.55;1.70;;;26.30;96.00;;;;;;4928475;29;20039;-75
2022/09/07 13:06:24;;;;;;;6.03;1.80;;;26.00;96.80;;;;;;4936487;29;20131;-75